logo
Search for airport 
image banner adimage banner adimage banner ad
image banner ad

LF3956 - Arbois-Ulm

Located in Arbois, France

ICAO - , IATA -

Data provided by Airmate  

General information

Coordinates: N46°53'50" E5°43'4"
Elevation is 940 feet MSL.
 
View others Airports in Franche-Comté

Operational data

Special qualification required
Current time UTC:
Current local time:
Weather at : LFGJ - Dole Tavaux ( 27 km )
METAR: LFGJ 252000Z AUTO 05003KT CAVOK 13/10 Q1022
TAF: TAF LFGJ 251400Z 2515/2524 VRB03KT CAVOK BECMG 2521/2524 2500 BR
View NOTAMs / SUP AIP / TFR affecting this airport [VIEW]
Communications frequencies: [VIEW]

Runways:

RWY identifierQFULength (ft)Width (ft)SurfaceLDA (ft)
041640131GRASS
221640131GRASS

Airport contact information

Address: Arbois France

Satellite view of LF3956